createdAt,value
2023-05-08T00:00:56.664Z,101401.84
2023-05-08T00:03:24.031Z,101406.16
2023-05-08T00:05:50.584Z,101414.78
2023-05-08T00:08:17.023Z,101413.50
2023-05-08T00:10:43.425Z,101416.38
2023-05-08T00:13:09.915Z,101403.31
2023-05-08T00:15:36.517Z,101404.75
2023-05-08T00:18:03.032Z,101399.69
2023-05-08T00:20:29.616Z,101408.94
2023-05-08T00:22:57.820Z,101399.97
2023-05-08T00:25:24.315Z,101402.91
2023-05-08T00:27:50.800Z,101401.81
2023-05-08T00:30:17.566Z,101406.78
2023-05-08T00:32:44.139Z,101402.38
2023-05-08T00:35:10.786Z,101395.94
2023-05-08T00:37:40.672Z,101389.16
2023-05-08T00:40:09.123Z,101416.66
2023-05-08T00:42:35.655Z,101407.78
2023-05-08T00:45:03.201Z,101417.66
2023-05-08T00:47:31.653Z,101410.25
2023-05-08T00:49:59.255Z,101404.06
2023-05-08T00:52:29.660Z,101387.56
2023-05-08T00:54:56.557Z,101396.91
2023-05-08T00:57:24.392Z,101394.41
2023-05-08T00:59:52.663Z,101400.56
2023-05-08T01:02:20.945Z,101404.25
2023-05-08T01:04:48.384Z,101399.75
2023-05-08T01:07:14.844Z,101400.75
2023-05-08T01:09:42.377Z,101391.34
2023-05-08T01:12:47.538Z,101373.06
2023-05-08T01:15:41.225Z,101406.72
2023-05-08T01:18:13.323Z,101400.53
2023-05-08T01:21:05.534Z,101400.91
2023-05-08T01:24:09.628Z,101404.75
2023-05-08T01:26:59.302Z,101410.63
2023-05-08T01:30:03.465Z,101406.31
2023-05-08T01:32:39.086Z,101404.81
2023-05-08T01:35:27.276Z,101416.63
2023-05-08T01:38:18.611Z,101409.84
2023-05-08T01:40:53.626Z,101406.59
2023-05-08T01:43:38.715Z,101398.16
2023-05-08T01:46:12.496Z,101407.63
2023-05-08T01:48:56.338Z,101389.38
2023-05-08T01:51:25.464Z,101393.03
2023-05-08T01:53:57.943Z,101418.22
2023-05-08T01:56:27.128Z,101411.09
2023-05-08T01:58:55.800Z,101423.94
2023-05-08T02:01:25.780Z,101426.91
2023-05-08T02:03:54.500Z,101417.25
2023-05-08T02:06:22.701Z,101419.69
2023-05-08T02:08:51.485Z,101423.16
2023-05-08T02:11:18.725Z,101426.31
2023-05-08T02:13:48.083Z,101424.31
2023-05-08T02:16:15.698Z,101423.63
2023-05-08T02:18:51.165Z,101425.22
2023-05-08T02:21:18.773Z,101424.84
2023-05-08T02:23:47.014Z,101433.22
2023-05-08T02:26:15.920Z,101409.31
2023-05-08T02:28:42.925Z,101425.41
2023-05-08T02:31:12.113Z,101423.69
2023-05-08T02:33:41.627Z,101422.72
2023-05-08T02:36:08.997Z,101423.25
2023-05-08T02:38:38.091Z,101431.69
2023-05-08T02:41:06.590Z,101405.72
2023-05-08T02:43:33.257Z,101428.84
2023-05-08T02:46:20.036Z,101427.88
2023-05-08T02:48:59.616Z,101425.28
2023-05-08T02:51:48.267Z,101398.03
2023-05-08T02:54:21.825Z,101421.59
2023-05-08T02:56:58.181Z,101419.41
2023-05-08T02:59:30.071Z,101412.53
2023-05-08T03:02:09.400Z,101391.03
2023-05-08T03:04:40.329Z,101402.31
2023-05-08T03:07:07.046Z,101400.78
2023-05-08T03:09:47.295Z,101405.75
2023-05-08T03:12:17.048Z,101400.13
2023-05-08T03:14:52.904Z,101404.91
2023-05-08T03:17:22.840Z,101405.22
2023-05-08T03:19:55.100Z,101409.38
2023-05-08T03:22:22.810Z,101411.88
2023-05-08T03:24:51.300Z,101403.84
2023-05-08T03:27:18.194Z,101417.69
2023-05-08T03:29:46.015Z,101394.22
2023-05-08T03:32:14.077Z,101404.38
2023-05-08T03:34:41.051Z,101416.56
2023-05-08T03:37:07.686Z,101404.03
2023-05-08T03:39:34.185Z,101400.06
2023-05-08T03:42:00.827Z,101405.59
2023-05-08T03:44:28.573Z,101404.56
2023-05-08T03:46:58.538Z,101394.72
2023-05-08T03:49:26.496Z,101400.81
2023-05-08T03:51:56.828Z,101393.66
2023-05-08T03:54:25.569Z,101397.50
2023-05-08T03:56:53.820Z,101394.16
2023-05-08T03:59:28.895Z,101398.34
2023-05-08T04:02:01.520Z,101403.97
2023-05-08T04:04:33.677Z,101407.28
2023-05-08T04:07:10.494Z,101400.94
2023-05-08T04:09:51.614Z,101398.72
2023-05-08T04:12:21.931Z,101401.22
2023-05-08T04:14:56.714Z,101406.00
2023-05-08T04:17:34.854Z,101408.81
2023-05-08T04:20:04.679Z,101410.28
2023-05-08T04:22:33.674Z,101412.97
2023-05-08T04:25:03.932Z,101418.84
2023-05-08T04:27:31.299Z,101429.63
2023-05-08T04:29:58.366Z,101422.59
2023-05-08T04:32:26.154Z,101426.00
2023-05-08T04:34:53.107Z,101429.16
2023-05-08T04:37:26.866Z,101429.66
2023-05-08T04:39:53.662Z,101439.53
2023-05-08T04:42:20.854Z,101432.34
2023-05-08T04:44:47.730Z,101436.88
2023-05-08T04:47:14.677Z,101425.88
2023-05-08T04:49:41.177Z,101434.03
2023-05-08T04:52:07.890Z,101434.69
2023-05-08T04:54:34.656Z,101440.03
2023-05-08T04:57:01.333Z,101430.31
2023-05-08T04:59:29.416Z,101435.66
2023-05-08T05:01:56.864Z,101430.31
2023-05-08T05:04:23.391Z,101442.03
2023-05-08T05:06:49.933Z,101434.50
2023-05-08T05:09:16.384Z,101446.84
2023-05-08T05:11:42.913Z,101451.34
2023-05-08T05:14:09.416Z,101451.81
2023-05-08T05:16:36.039Z,101461.97
2023-05-08T05:19:02.565Z,101450.28
2023-05-08T05:21:28.969Z,101462.78
2023-05-08T05:23:55.370Z,101470.69
2023-05-08T05:26:22.095Z,101475.38
2023-05-08T05:28:48.910Z,101478.72
2023-05-08T05:31:15.451Z,101473.56
2023-05-08T05:33:42.493Z,101471.44
2023-05-08T05:36:10.006Z,101475.09
2023-05-08T05:38:36.672Z,101480.31
2023-05-08T05:41:03.441Z,101485.47
2023-05-08T05:43:30.048Z,101482.81
2023-05-08T05:45:56.492Z,101483.00
2023-05-08T05:48:23.048Z,101483.88
2023-05-08T05:50:49.443Z,101491.72
2023-05-08T05:53:15.965Z,101495.88
2023-05-08T05:55:42.410Z,101499.69
2023-05-08T05:58:09.019Z,101492.16
2023-05-08T06:00:35.552Z,101499.44
2023-05-08T06:03:02.863Z,101498.75
2023-05-08T06:05:29.911Z,101499.41
2023-05-08T06:07:57.216Z,101498.00
2023-05-08T06:10:24.141Z,101486.19
2023-05-08T06:12:50.652Z,101507.94
2023-05-08T06:15:17.386Z,101501.38
2023-05-08T06:17:43.912Z,101488.31
2023-05-08T06:20:10.600Z,101495.16
2023-05-08T06:22:40.275Z,101494.78
2023-05-08T06:25:07.390Z,101491.28
2023-05-08T06:27:37.006Z,101493.63
2023-05-08T06:30:04.730Z,101486.06
2023-05-08T06:32:31.343Z,101486.63
2023-05-08T06:34:57.834Z,101487.94
2023-05-08T06:37:24.361Z,101491.94
2023-05-08T06:40:00.270Z,101486.03
2023-05-08T06:42:37.006Z,101481.78
2023-05-08T06:45:04.362Z,101483.91
2023-05-08T06:47:30.876Z,101478.00
2023-05-08T06:49:57.342Z,101489.25
2023-05-08T06:52:25.787Z,101496.81
2023-05-08T06:54:52.419Z,101493.16
2023-05-08T06:57:18.954Z,101486.13
2023-05-08T06:59:45.387Z,101487.78
2023-05-08T07:02:12.453Z,101489.25
2023-05-08T07:04:39.162Z,101489.81
2023-05-08T07:07:06.855Z,101486.59
2023-05-08T07:09:33.468Z,101482.34
2023-05-08T07:11:59.883Z,101486.69
2023-05-08T07:14:27.553Z,101480.84
2023-05-08T07:16:54.421Z,101478.13
2023-05-08T07:19:22.556Z,101472.09
2023-05-08T07:21:49.329Z,101475.63
2023-05-08T07:24:15.852Z,101443.78
2023-05-08T07:26:42.582Z,101466.84
2023-05-08T07:29:09.029Z,101470.72
2023-05-08T07:31:36.460Z,101474.66
2023-05-08T07:34:03.120Z,101474.50
2023-05-08T07:36:30.690Z,101475.88
2023-05-08T07:38:57.292Z,101478.66
2023-05-08T07:41:23.921Z,101481.03
2023-05-08T07:43:50.455Z,101476.50
2023-05-08T07:46:18.301Z,101467.81
2023-05-08T07:48:44.873Z,101472.72
2023-05-08T07:51:11.396Z,101474.22
2023-05-08T07:53:37.800Z,101486.09
2023-05-08T07:56:05.217Z,101483.25
2023-05-08T07:58:31.748Z,101481.13
2023-05-08T08:00:58.215Z,101477.13
2023-05-08T08:03:24.757Z,101476.84
2023-05-08T08:05:51.443Z,101483.59
2023-05-08T08:08:17.985Z,101479.16
2023-05-08T08:10:44.408Z,101469.53
2023-05-08T08:13:10.826Z,101470.00
2023-05-08T08:15:37.322Z,101476.72
2023-05-08T08:18:03.900Z,101473.84
2023-05-08T08:20:30.399Z,101472.72
2023-05-08T08:22:56.795Z,101465.69
2023-05-08T08:25:24.624Z,101463.13
2023-05-08T08:27:51.428Z,101456.28
2023-05-08T08:30:18.775Z,101462.28
2023-05-08T08:32:46.192Z,101458.97
2023-05-08T08:35:13.644Z,101463.78
2023-05-08T08:37:40.374Z,101457.84
2023-05-08T08:40:07.673Z,101459.88
2023-05-08T08:42:34.203Z,101455.47
2023-05-08T08:45:01.204Z,101461.00
2023-05-08T08:47:29.750Z,101452.31
2023-05-08T08:49:58.919Z,101451.69
2023-05-08T08:52:47.288Z,101459.81
2023-05-08T08:55:17.084Z,101446.38
2023-05-08T08:57:52.890Z,101443.91
2023-05-08T09:00:21.116Z,101456.25
2023-05-08T09:02:47.791Z,101448.44
2023-05-08T09:05:15.893Z,101444.34
2023-05-08T09:07:43.847Z,101450.78
2023-05-08T09:10:15.835Z,101437.00
2023-05-08T09:12:42.609Z,101451.16
2023-05-08T09:15:09.291Z,101448.69
2023-05-08T09:17:35.832Z,101455.34
2023-05-08T09:20:02.740Z,101464.06
2023-05-08T09:22:30.351Z,101454.31
2023-05-08T09:25:01.004Z,101457.06
2023-05-08T09:27:28.807Z,101453.31
2023-05-08T09:30:04.550Z,101453.34
2023-05-08T09:32:32.367Z,101454.38
2023-05-08T09:34:59.591Z,101452.09
2023-05-08T09:37:26.919Z,101460.09
2023-05-08T09:39:54.478Z,101470.19
2023-05-08T09:42:21.359Z,101468.34
2023-05-08T09:44:53.205Z,101472.88
2023-05-08T09:47:22.225Z,101472.88
2023-05-08T09:50:08.820Z,101474.41
2023-05-08T09:52:37.317Z,101468.22
2023-05-08T09:55:09.370Z,101461.59
2023-05-08T09:57:39.211Z,101471.16
2023-05-08T10:00:11.391Z,101465.34
2023-05-08T10:02:53.654Z,101460.19
2023-05-08T10:05:26.367Z,101464.97
2023-05-08T10:07:53.521Z,101463.28
2023-05-08T10:10:27.099Z,101460.00
2023-05-08T10:12:55.662Z,101446.94
2023-05-08T10:15:24.463Z,101464.72
2023-05-08T10:17:58.780Z,101464.72
2023-05-08T10:20:29.460Z,101468.03
2023-05-08T10:22:57.222Z,101459.94
2023-05-08T10:25:25.707Z,101464.91
2023-05-08T10:28:16.306Z,101469.06
2023-05-08T10:30:47.435Z,101469.47
2023-05-08T10:33:25.732Z,101435.94
2023-05-08T10:35:52.701Z,101463.69
2023-05-08T10:38:19.647Z,101460.16
2023-05-08T10:40:48.044Z,101468.22
2023-05-08T10:43:14.721Z,101466.38
2023-05-08T10:45:41.567Z,101473.81
2023-05-08T10:48:27.282Z,101464.06
2023-05-08T10:51:14.576Z,101475.66
2023-05-08T10:53:55.327Z,101466.78
2023-05-08T10:56:29.104Z,101471.53
2023-05-08T10:58:57.568Z,101455.59
2023-05-08T11:01:24.994Z,101460.31
2023-05-08T11:03:52.556Z,101460.94
2023-05-08T11:06:43.600Z,101453.25
2023-05-08T11:09:15.094Z,101452.41
2023-05-08T11:11:49.003Z,101450.34
2023-05-08T11:14:17.063Z,101443.03
2023-05-08T11:17:04.110Z,101441.78
2023-05-08T11:19:30.741Z,101442.97
2023-05-08T11:22:21.802Z,101441.25
2023-05-08T11:24:57.100Z,101424.88
2023-05-08T11:27:53.740Z,101432.53
2023-05-08T11:30:36.823Z,101429.34
2023-05-08T11:33:04.667Z,101424.13
2023-05-08T11:35:42.655Z,101427.88
2023-05-08T11:38:17.180Z,101428.50
2023-05-08T11:40:54.240Z,101413.72
2023-05-08T11:43:31.394Z,101426.94
2023-05-08T11:46:01.457Z,101410.13
2023-05-08T11:48:27.895Z,101424.34
2023-05-08T11:50:54.421Z,101427.91
2023-05-08T11:53:22.651Z,101421.31
2023-05-08T11:55:52.766Z,101420.53
2023-05-08T11:58:19.334Z,101423.91
2023-05-08T12:00:47.106Z,101427.88
2023-05-08T12:03:17.472Z,101426.38
2023-05-08T12:05:44.771Z,101423.50
2023-05-08T12:08:13.408Z,101419.84
2023-05-08T12:11:00.174Z,101419.41
2023-05-08T12:13:28.816Z,101406.63
2023-05-08T12:15:58.473Z,101421.81
2023-05-08T12:18:26.857Z,101410.13
2023-05-08T12:20:54.197Z,101411.88
2023-05-08T12:23:20.959Z,101412.31
2023-05-08T12:25:47.600Z,101410.47
2023-05-08T12:28:14.115Z,101393.16
2023-05-08T12:30:41.245Z,101400.31
2023-05-08T12:33:08.864Z,101402.06
2023-05-08T12:35:37.343Z,101394.09
2023-05-08T12:38:05.746Z,101397.63
2023-05-08T12:40:42.708Z,101393.88
2023-05-08T12:43:10.511Z,101398.44
2023-05-08T12:45:39.516Z,101396.13
2023-05-08T12:48:11.423Z,101382.03
2023-05-08T12:50:40.534Z,101393.97
2023-05-08T12:53:09.335Z,101369.13
2023-05-08T12:55:37.468Z,101393.66
2023-05-08T12:58:06.928Z,101384.97
2023-05-08T13:00:42.672Z,101382.69
2023-05-08T13:03:11.284Z,101385.97
2023-05-08T13:05:42.202Z,101374.59
2023-05-08T13:08:10.946Z,101385.38
2023-05-08T13:10:54.480Z,101378.59
2023-05-08T13:13:23.278Z,101383.97
2023-05-08T13:15:51.155Z,101392.75
2023-05-08T13:18:18.378Z,101389.66
2023-05-08T13:20:45.007Z,101389.34
2023-05-08T13:23:12.355Z,101389.00
2023-05-08T13:25:40.458Z,101393.13
2023-05-08T13:28:08.725Z,101390.63
2023-05-08T13:30:37.112Z,101387.72
2023-05-08T13:33:04.285Z,101390.88
2023-05-08T13:35:31.054Z,101389.59
2023-05-08T13:37:58.506Z,101388.56
2023-05-08T13:40:25.540Z,101393.13
2023-05-08T13:42:52.321Z,101387.09
2023-05-08T13:45:18.914Z,101375.94
2023-05-08T13:47:46.575Z,101386.31
2023-05-08T13:50:14.793Z,101388.56
2023-05-08T13:52:41.897Z,101389.19
2023-05-08T13:55:10.351Z,101388.16
2023-05-08T13:57:36.949Z,101378.84
2023-05-08T14:00:04.920Z,101380.31
2023-05-08T14:02:32.589Z,101383.59
2023-05-08T14:04:59.052Z,101384.84
2023-05-08T14:07:26.240Z,101391.72
2023-05-08T14:09:53.325Z,101381.38
2023-05-08T14:12:20.131Z,101387.25
2023-05-08T14:14:46.643Z,101382.09
2023-05-08T14:17:13.088Z,101385.59
2023-05-08T14:19:39.533Z,101394.53
2023-05-08T14:22:06.998Z,101388.72
2023-05-08T14:24:33.424Z,101379.78
2023-05-08T14:27:00.436Z,101385.34
2023-05-08T14:29:26.910Z,101377.66
2023-05-08T14:31:53.490Z,101379.25
2023-05-08T14:34:20.004Z,101379.03
2023-05-08T14:36:46.405Z,101374.53
2023-05-08T14:39:12.942Z,101375.72
2023-05-08T14:41:39.671Z,101375.13
2023-05-08T14:44:07.369Z,101381.09
2023-05-08T14:46:33.980Z,101376.09
2023-05-08T14:49:00.464Z,101372.16
2023-05-08T14:51:27.078Z,101365.25
2023-05-08T14:53:53.723Z,101370.06
2023-05-08T14:56:24.404Z,101361.38
2023-05-08T14:58:51.335Z,101367.38
2023-05-08T15:01:18.453Z,101368.44
2023-05-08T15:03:47.358Z,101366.81
2023-05-08T15:06:14.031Z,101364.13
2023-05-08T15:08:40.509Z,101369.13
2023-05-08T15:11:06.918Z,101373.22
2023-05-08T15:13:33.589Z,101382.38
2023-05-08T15:16:00.091Z,101363.63
2023-05-08T15:18:28.505Z,101363.66
2023-05-08T15:20:54.960Z,101372.03
2023-05-08T15:23:21.427Z,101363.06
2023-05-08T15:25:49.608Z,101368.63
2023-05-08T15:28:16.030Z,101376.66
2023-05-08T15:30:45.850Z,101377.03
2023-05-08T15:33:12.720Z,101370.56
2023-05-08T15:35:39.243Z,101369.34
2023-05-08T15:38:07.229Z,101378.88
2023-05-08T15:40:34.813Z,101374.34
2023-05-08T15:43:01.411Z,101371.47
2023-05-08T15:45:28.045Z,101374.91
2023-05-08T15:47:54.497Z,101373.06
2023-05-08T15:50:23.559Z,101374.41
2023-05-08T15:52:50.047Z,101375.25
2023-05-08T15:55:17.648Z,101368.50
2023-05-08T15:57:44.092Z,101370.19
2023-05-08T16:00:11.164Z,101372.66
2023-05-08T16:02:37.665Z,101372.88
2023-05-08T16:05:12.856Z,101368.78
2023-05-08T16:07:39.700Z,101362.78
2023-05-08T16:10:07.397Z,101354.50
2023-05-08T16:12:34.057Z,101356.41
2023-05-08T16:15:00.515Z,101360.53
2023-05-08T16:17:27.119Z,101347.31
2023-05-08T16:19:53.652Z,101347.94
2023-05-08T16:22:20.196Z,101349.53
2023-05-08T16:24:46.872Z,101330.09
2023-05-08T16:27:13.363Z,101343.50
2023-05-08T16:29:39.797Z,101348.06
2023-05-08T16:32:06.446Z,101347.41
2023-05-08T16:34:35.266Z,101348.00
2023-05-08T16:37:01.699Z,101348.19
2023-05-08T16:39:28.235Z,101339.59
2023-05-08T16:41:54.687Z,101338.78
2023-05-08T16:44:21.180Z,101339.59
2023-05-08T16:46:48.308Z,101344.31
2023-05-08T16:49:14.745Z,101327.50
2023-05-08T16:51:41.150Z,101332.94
2023-05-08T16:54:07.566Z,101331.88
2023-05-08T16:56:34.012Z,101329.19
2023-05-08T16:59:05.946Z,101329.41
2023-05-08T17:01:35.295Z,101328.97
2023-05-08T17:04:01.885Z,101337.00
2023-05-08T17:06:28.510Z,101333.53
2023-05-08T17:08:55.045Z,101318.06
2023-05-08T17:11:21.889Z,101324.38
2023-05-08T17:13:48.385Z,101315.06
2023-05-08T17:16:15.034Z,101306.84
2023-05-08T17:18:41.471Z,101316.84
2023-05-08T17:21:07.902Z,101310.59
2023-05-08T17:23:34.394Z,101297.03
2023-05-08T17:26:02.208Z,101315.59
2023-05-08T17:28:29.028Z,101320.19
2023-05-08T17:30:55.921Z,101310.88
2023-05-08T17:33:22.673Z,101307.63
2023-05-08T17:35:49.151Z,101302.56
2023-05-08T17:38:15.689Z,101295.75
2023-05-08T17:40:42.433Z,101299.47
2023-05-08T17:43:08.925Z,101296.59
2023-05-08T17:45:35.513Z,101292.50
2023-05-08T17:48:02.200Z,101286.97
2023-05-08T17:50:28.779Z,101285.53
2023-05-08T17:52:55.322Z,101287.03
2023-05-08T17:55:22.015Z,101275.66
2023-05-08T17:57:48.461Z,101273.34
2023-05-08T18:00:15.491Z,101274.78
2023-05-08T18:02:42.140Z,101271.31
2023-05-08T18:05:09.024Z,101263.66
2023-05-08T18:07:35.470Z,101259.34
2023-05-08T18:10:02.141Z,101254.81
2023-05-08T18:12:28.787Z,101276.28
2023-05-08T18:14:55.238Z,101269.47
2023-05-08T18:17:22.712Z,101273.78
2023-05-08T18:19:49.284Z,101268.88
2023-05-08T18:22:15.853Z,101266.41
2023-05-08T18:24:42.468Z,101281.28
2023-05-08T18:27:09.148Z,101287.47
2023-05-08T18:29:35.674Z,101281.91
2023-05-08T18:32:02.134Z,101273.44
2023-05-08T18:34:28.531Z,101290.41
2023-05-08T18:36:56.145Z,101293.50
2023-05-08T18:39:24.535Z,101294.50
2023-05-08T18:41:50.951Z,101292.03
2023-05-08T18:44:17.794Z,101289.94
2023-05-08T18:46:44.293Z,101295.56
2023-05-08T18:49:10.991Z,101296.56
2023-05-08T18:51:37.464Z,101295.09
2023-05-08T18:54:04.116Z,101305.22
2023-05-08T18:56:30.766Z,101293.63
2023-05-08T18:58:57.237Z,101293.22
2023-05-08T19:01:23.928Z,101295.91
2023-05-08T19:03:50.660Z,101304.56
2023-05-08T19:06:17.204Z,101299.59
2023-05-08T19:08:44.533Z,101305.56
2023-05-08T19:11:11.009Z,101308.44
2023-05-08T19:13:37.878Z,101302.66
2023-05-08T19:16:04.605Z,101295.66
2023-05-08T19:18:31.146Z,101293.38
2023-05-08T19:20:57.895Z,101290.72
2023-05-08T19:23:28.188Z,101308.28
2023-05-08T19:25:54.782Z,101309.31
2023-05-08T19:28:21.244Z,101300.25
2023-05-08T19:30:47.678Z,101304.34
2023-05-08T19:33:14.236Z,101325.63
2023-05-08T19:35:40.661Z,101321.94
2023-05-08T19:38:07.278Z,101322.38
2023-05-08T19:40:41.321Z,101319.47
2023-05-08T19:43:18.738Z,101325.69
2023-05-08T19:45:45.294Z,101325.91
2023-05-08T19:48:17.951Z,101322.59
2023-05-08T19:50:44.971Z,101315.97
2023-05-08T19:53:11.466Z,101321.31
2023-05-08T19:55:38.016Z,101327.53
2023-05-08T19:58:04.423Z,101322.53
2023-05-08T20:00:30.841Z,101318.84
2023-05-08T20:02:57.403Z,101318.44
2023-05-08T20:05:23.971Z,101306.69
2023-05-08T20:07:50.385Z,101295.69
2023-05-08T20:10:16.944Z,101297.56
2023-05-08T20:12:43.497Z,101293.63
2023-05-08T20:15:10.500Z,101296.28
2023-05-08T20:17:36.935Z,101304.72
2023-05-08T20:20:03.693Z,101310.44
2023-05-08T20:22:30.218Z,101303.84
2023-05-08T20:24:56.850Z,101301.94
2023-05-08T20:27:23.311Z,101313.94
2023-05-08T20:29:49.905Z,101311.69
2023-05-08T20:32:19.019Z,101302.59
2023-05-08T20:34:45.514Z,101304.22
2023-05-08T20:37:12.128Z,101300.75
2023-05-08T20:39:38.715Z,101301.31
2023-05-08T20:42:05.150Z,101302.97
2023-05-08T20:44:32.652Z,101301.69
2023-05-08T20:46:59.323Z,101303.53
2023-05-08T20:49:26.074Z,101304.19
2023-05-08T20:51:52.573Z,101299.41
2023-05-08T20:54:19.125Z,101295.25
2023-05-08T20:56:45.657Z,101286.00
2023-05-08T20:59:12.118Z,101287.66
2023-05-08T21:01:38.684Z,101278.97
2023-05-08T21:04:05.262Z,101270.09
2023-05-08T21:06:32.197Z,101264.66
2023-05-08T21:08:58.630Z,101258.28
2023-05-08T21:11:25.095Z,101266.94
2023-05-08T21:13:51.624Z,101259.91
2023-05-08T21:16:18.093Z,101255.97
2023-05-08T21:18:44.558Z,101249.59
2023-05-08T21:21:15.751Z,101233.88
2023-05-08T21:23:42.169Z,101230.56
2023-05-08T21:26:08.785Z,101243.19
2023-05-08T21:28:35.270Z,101221.47
2023-05-08T21:31:01.821Z,101226.41
2023-05-08T21:33:28.342Z,101218.56
2023-05-08T21:35:54.856Z,101213.81
2023-05-08T21:38:21.294Z,101213.19
2023-05-08T21:40:47.718Z,101198.34
2023-05-08T21:43:14.165Z,101201.63
2023-05-08T21:45:40.578Z,101200.19
2023-05-08T21:48:07.026Z,101189.66
2023-05-08T21:50:33.572Z,101190.88
2023-05-08T21:53:00.165Z,101197.94
2023-05-08T21:55:26.745Z,101187.41
2023-05-08T21:57:53.883Z,101183.88
2023-05-08T22:00:20.960Z,101180.56
2023-05-08T22:02:47.944Z,101185.13
2023-05-08T22:05:14.787Z,101190.88
2023-05-08T22:07:41.590Z,101179.72
2023-05-08T22:10:09.420Z,101187.97
2023-05-08T22:12:36.098Z,101183.03
2023-05-08T22:15:02.703Z,101185.28
2023-05-08T22:17:29.196Z,101174.34
2023-05-08T22:19:55.601Z,101175.38
2023-05-08T22:22:22.130Z,101172.06
2023-05-08T22:24:48.563Z,101160.34
2023-05-08T22:27:15.014Z,101154.94
2023-05-08T22:29:41.440Z,101157.03
2023-05-08T22:32:08.494Z,101152.31
2023-05-08T22:34:35.180Z,101157.47
2023-05-08T22:37:02.179Z,101146.97
2023-05-08T22:39:28.698Z,101143.84
2023-05-08T22:41:55.368Z,101134.34
2023-05-08T22:44:22.202Z,101131.25
2023-05-08T22:46:48.886Z,101108.56
2023-05-08T22:49:15.521Z,101120.94
2023-05-08T22:51:42.028Z,101127.38
2023-05-08T22:54:08.500Z,101123.00
2023-05-08T22:56:36.058Z,101122.59
2023-05-08T22:59:02.539Z,101124.66
2023-05-08T23:01:28.970Z,101116.63
2023-05-08T23:03:56.582Z,101104.84
2023-05-08T23:06:23.331Z,101117.22
2023-05-08T23:08:49.790Z,101097.63
2023-05-08T23:11:16.505Z,101102.16
2023-05-08T23:13:42.952Z,101111.66
2023-05-08T23:16:09.553Z,101113.09
2023-05-08T23:18:36.019Z,101112.03
2023-05-08T23:21:06.635Z,101104.63
2023-05-08T23:23:33.373Z,101113.28
2023-05-08T23:26:01.096Z,101107.53
2023-05-08T23:28:27.646Z,101103.59
2023-05-08T23:30:54.137Z,101106.88
2023-05-08T23:33:20.840Z,101104.22
2023-05-08T23:35:47.264Z,101093.91
2023-05-08T23:38:13.762Z,101084.44
2023-05-08T23:40:40.332Z,101084.44
2023-05-08T23:43:06.964Z,101082.78
2023-05-08T23:45:33.434Z,101081.34
2023-05-08T23:47:59.953Z,101065.88
2023-05-08T23:50:26.589Z,101072.88
2023-05-08T23:52:53.098Z,101065.06
2023-05-08T23:55:20.255Z,101074.72
2023-05-08T23:57:46.904Z,101071.03
